sensor_id;sensor_type;location;lat;lon;timestamp;P1;durP1;ratioP1;P2;durP2;ratioP2
24305;SDS011;12423;48.768;8.850;2023-06-26T00:01:51;9.05;;;7.10;;
24305;SDS011;12423;48.768;8.850;2023-06-26T00:03:52;11.35;;;6.53;;
24305;SDS011;12423;48.768;8.850;2023-06-26T00:05:54;9.63;;;6.50;;
24305;SDS011;12423;48.768;8.850;2023-06-26T00:07:55;9.45;;;6.90;;
24305;SDS011;12423;48.768;8.850;2023-06-26T00:09:56;10.30;;;6.88;;
24305;SDS011;12423;48.768;8.850;2023-06-26T00:11:58;9.05;;;6.43;;
24305;SDS011;12423;48.768;8.850;2023-06-26T00:14:00;9.57;;;6.68;;
24305;SDS011;12423;48.768;8.850;2023-06-26T00:16:01;8.05;;;6.47;;
24305;SDS011;12423;48.768;8.850;2023-06-26T00:18:03;10.77;;;7.22;;
24305;SDS011;12423;48.768;8.850;2023-06-26T00:20:05;9.45;;;7.05;;
24305;SDS011;12423;48.768;8.850;2023-06-26T00:22:07;9.23;;;5.90;;
24305;SDS011;12423;48.768;8.850;2023-06-26T00:24:08;8.45;;;6.32;;
24305;SDS011;12423;48.768;8.850;2023-06-26T00:26:09;9.25;;;6.75;;
24305;SDS011;12423;48.768;8.850;2023-06-26T00:28:10;8.75;;;6.50;;
24305;SDS011;12423;48.768;8.850;2023-06-26T00:30:12;9.32;;;6.55;;
24305;SDS011;12423;48.768;8.850;2023-06-26T00:32:13;9.48;;;6.70;;
24305;SDS011;12423;48.768;8.850;2023-06-26T00:34:14;8.52;;;6.57;;
24305;SDS011;12423;48.768;8.850;2023-06-26T00:36:16;9.82;;;7.07;;
24305;SDS011;12423;48.768;8.850;2023-06-26T00:38:17;8.50;;;6.53;;
24305;SDS011;12423;48.768;8.850;2023-06-26T00:40:18;8.88;;;6.75;;
24305;SDS011;12423;48.768;8.850;2023-06-26T00:42:19;9.55;;;6.70;;
24305;SDS011;12423;48.768;8.850;2023-06-26T00:44:20;11.13;;;7.25;;
24305;SDS011;12423;48.768;8.850;2023-06-26T00:46:21;9.23;;;7.03;;
24305;SDS011;12423;48.768;8.850;2023-06-26T00:48:22;8.05;;;6.45;;
24305;SDS011;12423;48.768;8.850;2023-06-26T00:50:25;10.45;;;7.03;;
24305;SDS011;12423;48.768;8.850;2023-06-26T00:52:27;10.32;;;7.40;;
24305;SDS011;12423;48.768;8.850;2023-06-26T00:54:29;10.40;;;6.55;;
24305;SDS011;12423;48.768;8.850;2023-06-26T00:56:30;9.13;;;6.70;;
24305;SDS011;12423;48.768;8.850;2023-06-26T00:58:32;10.02;;;7.05;;
24305;SDS011;12423;48.768;8.850;2023-06-26T01:00:33;9.60;;;7.22;;
24305;SDS011;12423;48.768;8.850;2023-06-26T01:02:34;9.35;;;7.18;;
24305;SDS011;12423;48.768;8.850;2023-06-26T01:04:36;9.68;;;6.80;;
24305;SDS011;12423;48.768;8.850;2023-06-26T01:06:40;10.80;;;7.20;;
24305;SDS011;12423;48.768;8.850;2023-06-26T01:08:41;11.27;;;7.25;;
24305;SDS011;12423;48.768;8.850;2023-06-26T01:10:43;9.82;;;7.35;;
24305;SDS011;12423;48.768;8.850;2023-06-26T01:12:45;10.02;;;6.60;;
24305;SDS011;12423;48.768;8.850;2023-06-26T01:14:46;9.15;;;6.78;;
24305;SDS011;12423;48.768;8.850;2023-06-26T01:16:47;9.80;;;6.63;;
24305;SDS011;12423;48.768;8.850;2023-06-26T01:18:50;9.63;;;6.93;;
24305;SDS011;12423;48.768;8.850;2023-06-26T01:20:52;8.93;;;6.70;;
24305;SDS011;12423;48.768;8.850;2023-06-26T01:27:39;8.98;;;6.43;;
24305;SDS011;12423;48.768;8.850;2023-06-26T01:29:40;9.30;;;6.55;;
24305;SDS011;12423;48.768;8.850;2023-06-26T01:31:43;12.07;;;6.97;;
24305;SDS011;12423;48.768;8.850;2023-06-26T01:33:48;9.25;;;7.10;;
24305;SDS011;12423;48.768;8.850;2023-06-26T01:35:50;8.65;;;6.70;;
24305;SDS011;12423;48.768;8.850;2023-06-26T01:37:51;8.55;;;6.93;;
24305;SDS011;12423;48.768;8.850;2023-06-26T01:39:52;9.35;;;6.85;;
24305;SDS011;12423;48.768;8.850;2023-06-26T01:41:53;8.77;;;6.60;;
24305;SDS011;12423;48.768;8.850;2023-06-26T01:44:01;10.57;;;7.47;;
24305;SDS011;12423;48.768;8.850;2023-06-26T01:46:11;8.48;;;6.68;;
24305;SDS011;12423;48.768;8.850;2023-06-26T01:48:23;12.50;;;7.00;;
24305;SDS011;12423;48.768;8.850;2023-06-26T01:52:35;10.95;;;6.97;;
24305;SDS011;12423;48.768;8.850;2023-06-26T01:54:44;9.15;;;6.95;;
24305;SDS011;12423;48.768;8.850;2023-06-26T01:56:53;10.07;;;7.25;;
24305;SDS011;12423;48.768;8.850;2023-06-26T01:58:55;10.60;;;6.65;;
24305;SDS011;12423;48.768;8.850;2023-06-26T02:00:58;9.52;;;7.03;;
24305;SDS011;12423;48.768;8.850;2023-06-26T02:03:00;8.85;;;7.00;;
24305;SDS011;12423;48.768;8.850;2023-06-26T02:05:01;9.50;;;7.20;;
24305;SDS011;12423;48.768;8.850;2023-06-26T02:07:03;9.77;;;7.00;;
24305;SDS011;12423;48.768;8.850;2023-06-26T02:09:07;11.60;;;7.07;;
24305;SDS011;12423;48.768;8.850;2023-06-26T02:11:08;10.00;;;7.20;;
24305;SDS011;12423;48.768;8.850;2023-06-26T02:13:09;8.77;;;6.70;;
24305;SDS011;12423;48.768;8.850;2023-06-26T02:15:10;9.93;;;7.25;;
24305;SDS011;12423;48.768;8.850;2023-06-26T02:17:11;9.43;;;6.82;;
24305;SDS011;12423;48.768;8.850;2023-06-26T02:19:12;9.27;;;6.75;;
24305;SDS011;12423;48.768;8.850;2023-06-26T02:21:16;11.20;;;7.03;;
24305;SDS011;12423;48.768;8.850;2023-06-26T02:23:17;9.70;;;6.47;;
24305;SDS011;12423;48.768;8.850;2023-06-26T02:25:18;10.15;;;6.95;;
24305;SDS011;12423;48.768;8.850;2023-06-26T02:27:19;10.13;;;6.82;;
24305;SDS011;12423;48.768;8.850;2023-06-26T02:29:20;11.82;;;7.00;;
24305;SDS011;12423;48.768;8.850;2023-06-26T02:31:21;9.73;;;7.10;;
24305;SDS011;12423;48.768;8.850;2023-06-26T02:33:22;12.70;;;8.23;;
24305;SDS011;12423;48.768;8.850;2023-06-26T02:35:23;11.00;;;7.25;;
24305;SDS011;12423;48.768;8.850;2023-06-26T02:37:25;10.30;;;7.35;;
24305;SDS011;12423;48.768;8.850;2023-06-26T02:39:26;9.48;;;6.97;;
24305;SDS011;12423;48.768;8.850;2023-06-26T02:41:28;9.27;;;6.70;;
24305;SDS011;12423;48.768;8.850;2023-06-26T02:43:29;11.95;;;7.72;;
24305;SDS011;12423;48.768;8.850;2023-06-26T02:45:30;10.40;;;6.57;;
24305;SDS011;12423;48.768;8.850;2023-06-26T02:47:31;12.50;;;7.03;;
24305;SDS011;12423;48.768;8.850;2023-06-26T02:49:32;11.05;;;7.88;;
24305;SDS011;12423;48.768;8.850;2023-06-26T02:51:33;8.90;;;6.82;;
24305;SDS011;12423;48.768;8.850;2023-06-26T02:53:38;11.05;;;7.47;;
24305;SDS011;12423;48.768;8.850;2023-06-26T02:55:43;12.65;;;7.25;;
24305;SDS011;12423;48.768;8.850;2023-06-26T02:57:45;9.48;;;6.90;;
24305;SDS011;12423;48.768;8.850;2023-06-26T02:59:46;10.70;;;7.13;;
24305;SDS011;12423;48.768;8.850;2023-06-26T03:01:48;9.32;;;6.90;;
24305;SDS011;12423;48.768;8.850;2023-06-26T03:03:49;9.70;;;6.85;;
24305;SDS011;12423;48.768;8.850;2023-06-26T03:05:52;8.57;;;6.47;;
24305;SDS011;12423;48.768;8.850;2023-06-26T03:07:53;10.43;;;7.45;;
24305;SDS011;12423;48.768;8.850;2023-06-26T03:09:54;10.23;;;7.55;;
24305;SDS011;12423;48.768;8.850;2023-06-26T03:11:56;9.98;;;7.05;;
24305;SDS011;12423;48.768;8.850;2023-06-26T03:13:57;9.38;;;6.75;;
24305;SDS011;12423;48.768;8.850;2023-06-26T03:15:59;10.85;;;6.90;;
24305;SDS011;12423;48.768;8.850;2023-06-26T03:18:00;10.90;;;6.90;;
24305;SDS011;12423;48.768;8.850;2023-06-26T03:20:04;11.73;;;7.13;;
24305;SDS011;12423;48.768;8.850;2023-06-26T03:22:26;9.10;;;6.85;;
24305;SDS011;12423;48.768;8.850;2023-06-26T03:24:27;8.63;;;6.72;;
24305;SDS011;12423;48.768;8.850;2023-06-26T03:26:28;9.73;;;6.90;;
24305;SDS011;12423;48.768;8.850;2023-06-26T03:28:31;8.68;;;7.15;;
24305;SDS011;12423;48.768;8.850;2023-06-26T03:30:32;10.13;;;7.32;;
24305;SDS011;12423;48.768;8.850;2023-06-26T03:32:33;9.70;;;6.82;;
24305;SDS011;12423;48.768;8.850;2023-06-26T03:34:34;10.02;;;6.85;;
24305;SDS011;12423;48.768;8.850;2023-06-26T03:36:35;12.55;;;7.18;;
24305;SDS011;12423;48.768;8.850;2023-06-26T03:38:37;10.60;;;6.78;;
24305;SDS011;12423;48.768;8.850;2023-06-26T03:40:38;11.45;;;7.60;;
24305;SDS011;12423;48.768;8.850;2023-06-26T03:42:42;10.80;;;6.70;;
24305;SDS011;12423;48.768;8.850;2023-06-26T03:44:45;9.68;;;7.22;;
24305;SDS011;12423;48.768;8.850;2023-06-26T03:46:46;9.90;;;6.90;;
24305;SDS011;12423;48.768;8.850;2023-06-26T03:48:47;9.98;;;7.22;;
24305;SDS011;12423;48.768;8.850;2023-06-26T03:50:48;10.88;;;7.30;;
24305;SDS011;12423;48.768;8.850;2023-06-26T03:52:51;10.00;;;7.05;;
24305;SDS011;12423;48.768;8.850;2023-06-26T03:54:52;9.80;;;7.07;;
24305;SDS011;12423;48.768;8.850;2023-06-26T03:56:53;13.93;;;7.45;;
24305;SDS011;12423;48.768;8.850;2023-06-26T03:58:56;10.70;;;7.93;;
24305;SDS011;12423;48.768;8.850;2023-06-26T04:00:57;10.40;;;7.30;;
24305;SDS011;12423;48.768;8.850;2023-06-26T04:02:58;12.20;;;7.82;;
24305;SDS011;12423;48.768;8.850;2023-06-26T04:04:59;10.25;;;7.07;;
24305;SDS011;12423;48.768;8.850;2023-06-26T04:07:01;14.82;;;8.25;;
24305;SDS011;12423;48.768;8.850;2023-06-26T04:09:03;9.55;;;7.65;;
24305;SDS011;12423;48.768;8.850;2023-06-26T04:11:05;8.90;;;7.15;;
24305;SDS011;12423;48.768;8.850;2023-06-26T04:13:06;10.27;;;7.38;;
24305;SDS011;12423;48.768;8.850;2023-06-26T04:15:07;10.98;;;6.75;;
24305;SDS011;12423;48.768;8.850;2023-06-26T04:17:08;10.52;;;6.97;;
24305;SDS011;12423;48.768;8.850;2023-06-26T04:19:09;8.75;;;6.68;;
24305;SDS011;12423;48.768;8.850;2023-06-26T04:21:12;11.23;;;7.57;;
24305;SDS011;12423;48.768;8.850;2023-06-26T04:23:13;12.38;;;7.55;;
24305;SDS011;12423;48.768;8.850;2023-06-26T04:25:14;9.35;;;6.97;;
24305;SDS011;12423;48.768;8.850;2023-06-26T04:27:15;10.60;;;7.93;;
24305;SDS011;12423;48.768;8.850;2023-06-26T04:29:16;9.25;;;6.85;;
24305;SDS011;12423;48.768;8.850;2023-06-26T04:31:17;10.32;;;7.88;;
24305;SDS011;12423;48.768;8.850;2023-06-26T04:33:18;9.65;;;7.10;;
24305;SDS011;12423;48.768;8.850;2023-06-26T04:35:19;10.27;;;7.72;;
24305;SDS011;12423;48.768;8.850;2023-06-26T04:37:22;11.57;;;7.25;;
24305;SDS011;12423;48.768;8.850;2023-06-26T04:39:23;10.25;;;6.70;;
24305;SDS011;12423;48.768;8.850;2023-06-26T04:41:25;10.20;;;6.82;;
24305;SDS011;12423;48.768;8.850;2023-06-26T04:43:26;11.23;;;7.75;;
24305;SDS011;12423;48.768;8.850;2023-06-26T04:45:27;10.02;;;6.80;;
24305;SDS011;12423;48.768;8.850;2023-06-26T04:47:28;10.93;;;7.20;;
24305;SDS011;12423;48.768;8.850;2023-06-26T04:49:29;9.70;;;7.07;;
24305;SDS011;12423;48.768;8.850;2023-06-26T04:51:30;10.35;;;6.75;;
24305;SDS011;12423;48.768;8.850;2023-06-26T04:53:31;13.60;;;7.45;;
24305;SDS011;12423;48.768;8.850;2023-06-26T04:55:32;9.88;;;7.35;;
24305;SDS011;12423;48.768;8.850;2023-06-26T04:57:33;11.20;;;7.25;;
24305;SDS011;12423;48.768;8.850;2023-06-26T04:59:34;8.98;;;6.45;;
24305;SDS011;12423;48.768;8.850;2023-06-26T05:01:36;9.98;;;7.55;;
24305;SDS011;12423;48.768;8.850;2023-06-26T05:03:39;11.23;;;6.72;;
24305;SDS011;12423;48.768;8.850;2023-06-26T05:05:41;9.45;;;6.30;;
24305;SDS011;12423;48.768;8.850;2023-06-26T05:07:42;10.50;;;7.13;;
24305;SDS011;12423;48.768;8.850;2023-06-26T05:09:43;9.63;;;6.80;;
24305;SDS011;12423;48.768;8.850;2023-06-26T05:11:44;10.25;;;6.63;;
24305;SDS011;12423;48.768;8.850;2023-06-26T05:13:45;10.15;;;7.38;;
24305;SDS011;12423;48.768;8.850;2023-06-26T05:15:46;10.32;;;7.55;;
24305;SDS011;12423;48.768;8.850;2023-06-26T05:17:47;9.10;;;6.97;;
24305;SDS011;12423;48.768;8.850;2023-06-26T05:19:48;8.57;;;6.90;;
24305;SDS011;12423;48.768;8.850;2023-06-26T05:21:49;12.68;;;7.40;;
24305;SDS011;12423;48.768;8.850;2023-06-26T05:23:51;8.52;;;6.47;;
24305;SDS011;12423;48.768;8.850;2023-06-26T05:25:56;8.43;;;6.72;;
24305;SDS011;12423;48.768;8.850;2023-06-26T05:27:57;13.00;;;6.60;;
24305;SDS011;12423;48.768;8.850;2023-06-26T05:29:59;9.90;;;7.28;;
24305;SDS011;12423;48.768;8.850;2023-06-26T05:32:00;14.13;;;7.80;;
24305;SDS011;12423;48.768;8.850;2023-06-26T05:34:02;9.75;;;6.95;;
24305;SDS011;12423;48.768;8.850;2023-06-26T05:36:04;10.18;;;7.45;;
24305;SDS011;12423;48.768;8.850;2023-06-26T05:38:07;11.20;;;6.95;;
24305;SDS011;12423;48.768;8.850;2023-06-26T05:40:09;9.95;;;6.72;;
24305;SDS011;12423;48.768;8.850;2023-06-26T05:42:11;12.88;;;7.18;;
24305;SDS011;12423;48.768;8.850;2023-06-26T05:44:13;9.93;;;6.53;;
24305;SDS011;12423;48.768;8.850;2023-06-26T05:46:14;9.05;;;6.72;;
24305;SDS011;12423;48.768;8.850;2023-06-26T05:48:15;11.60;;;7.43;;
24305;SDS011;12423;48.768;8.850;2023-06-26T05:50:17;12.98;;;6.90;;
24305;SDS011;12423;48.768;8.850;2023-06-26T05:52:19;13.52;;;7.47;;
24305;SDS011;12423;48.768;8.850;2023-06-26T05:54:20;12.77;;;7.43;;
24305;SDS011;12423;48.768;8.850;2023-06-26T05:56:21;10.80;;;6.32;;
24305;SDS011;12423;48.768;8.850;2023-06-26T05:58:24;13.13;;;7.18;;
24305;SDS011;12423;48.768;8.850;2023-06-26T06:00:28;10.25;;;7.13;;
24305;SDS011;12423;48.768;8.850;2023-06-26T06:02:29;12.80;;;7.43;;
24305;SDS011;12423;48.768;8.850;2023-06-26T06:04:30;9.98;;;7.10;;
24305;SDS011;12423;48.768;8.850;2023-06-26T06:06:31;12.07;;;6.40;;
24305;SDS011;12423;48.768;8.850;2023-06-26T06:08:32;10.25;;;6.88;;
24305;SDS011;12423;48.768;8.850;2023-06-26T06:10:33;11.25;;;6.43;;
24305;SDS011;12423;48.768;8.850;2023-06-26T06:12:35;12.55;;;7.82;;
24305;SDS011;12423;48.768;8.850;2023-06-26T06:14:36;8.73;;;6.65;;
24305;SDS011;12423;48.768;8.850;2023-06-26T06:16:37;8.48;;;5.55;;
24305;SDS011;12423;48.768;8.850;2023-06-26T06:18:38;10.10;;;5.82;;
24305;SDS011;12423;48.768;8.850;2023-06-26T06:20:39;8.10;;;5.78;;
24305;SDS011;12423;48.768;8.850;2023-06-26T06:22:40;7.85;;;6.03;;
24305;SDS011;12423;48.768;8.850;2023-06-26T06:24:41;11.23;;;6.18;;
24305;SDS011;12423;48.768;8.850;2023-06-26T06:26:42;6.95;;;5.57;;
24305;SDS011;12423;48.768;8.850;2023-06-26T06:28:43;8.45;;;5.65;;
24305;SDS011;12423;48.768;8.850;2023-06-26T06:30:44;13.18;;;6.32;;
24305;SDS011;12423;48.768;8.850;2023-06-26T06:32:47;8.18;;;5.72;;
24305;SDS011;12423;48.768;8.850;2023-06-26T06:34:50;13.05;;;6.50;;
24305;SDS011;12423;48.768;8.850;2023-06-26T06:36:51;11.38;;;7.25;;
24305;SDS011;12423;48.768;8.850;2023-06-26T06:38:53;10.02;;;5.07;;
24305;SDS011;12423;48.768;8.850;2023-06-26T06:40:54;6.32;;;4.95;;
24305;SDS011;12423;48.768;8.850;2023-06-26T06:42:55;6.70;;;4.38;;
24305;SDS011;12423;48.768;8.850;2023-06-26T06:44:56;6.82;;;4.60;;
24305;SDS011;12423;48.768;8.850;2023-06-26T06:46:57;6.43;;;4.57;;
24305;SDS011;12423;48.768;8.850;2023-06-26T06:48:58;6.20;;;4.68;;
24305;SDS011;12423;48.768;8.850;2023-06-26T06:50:59;6.40;;;4.57;;
24305;SDS011;12423;48.768;8.850;2023-06-26T06:53:00;6.53;;;4.72;;
24305;SDS011;12423;48.768;8.850;2023-06-26T06:55:01;9.00;;;4.72;;
24305;SDS011;12423;48.768;8.850;2023-06-26T06:57:06;5.88;;;4.80;;
24305;SDS011;12423;48.768;8.850;2023-06-26T06:59:07;7.63;;;4.40;;
24305;SDS011;12423;48.768;8.850;2023-06-26T07:01:09;7.45;;;4.78;;
24305;SDS011;12423;48.768;8.850;2023-06-26T07:03:10;5.95;;;4.30;;
24305;SDS011;12423;48.768;8.850;2023-06-26T07:05:11;5.18;;;4.22;;
24305;SDS011;12423;48.768;8.850;2023-06-26T07:07:13;6.47;;;4.93;;
24305;SDS011;12423;48.768;8.850;2023-06-26T07:09:14;8.00;;;4.20;;
24305;SDS011;12423;48.768;8.850;2023-06-26T07:11:15;5.30;;;3.95;;
24305;SDS011;12423;48.768;8.850;2023-06-26T07:13:16;4.90;;;3.90;;
24305;SDS011;12423;48.768;8.850;2023-06-26T07:15:17;6.25;;;4.05;;
24305;SDS011;12423;48.768;8.850;2023-06-26T07:17:19;5.05;;;3.67;;
24305;SDS011;12423;48.768;8.850;2023-06-26T07:19:20;6.47;;;3.63;;
24305;SDS011;12423;48.768;8.850;2023-06-26T07:21:21;6.38;;;4.03;;
24305;SDS011;12423;48.768;8.850;2023-06-26T07:23:22;5.05;;;3.78;;
24305;SDS011;12423;48.768;8.850;2023-06-26T07:25:23;8.68;;;4.50;;
24305;SDS011;12423;48.768;8.850;2023-06-26T07:27:24;6.22;;;4.15;;
24305;SDS011;12423;48.768;8.850;2023-06-26T07:29:25;5.30;;;3.70;;
24305;SDS011;12423;48.768;8.850;2023-06-26T07:31:27;5.13;;;3.72;;
24305;SDS011;12423;48.768;8.850;2023-06-26T07:33:28;11.35;;;4.03;;
24305;SDS011;12423;48.768;8.850;2023-06-26T07:35:29;6.13;;;4.40;;
24305;SDS011;12423;48.768;8.850;2023-06-26T07:37:30;7.70;;;4.28;;
24305;SDS011;12423;48.768;8.850;2023-06-26T07:39:31;8.32;;;4.05;;
24305;SDS011;12423;48.768;8.850;2023-06-26T07:41:32;6.88;;;3.70;;
24305;SDS011;12423;48.768;8.850;2023-06-26T07:43:33;7.78;;;4.00;;
24305;SDS011;12423;48.768;8.850;2023-06-26T07:45:34;7.20;;;4.03;;
24305;SDS011;12423;48.768;8.850;2023-06-26T07:47:36;7.40;;;3.67;;
24305;SDS011;12423;48.768;8.850;2023-06-26T07:49:37;5.47;;;4.28;;
24305;SDS011;12423;48.768;8.850;2023-06-26T07:51:39;7.47;;;3.92;;
24305;SDS011;12423;48.768;8.850;2023-06-26T07:53:41;6.30;;;3.85;;
24305;SDS011;12423;48.768;8.850;2023-06-26T07:55:45;6.93;;;3.65;;
24305;SDS011;12423;48.768;8.850;2023-06-26T07:57:46;6.35;;;3.90;;
24305;SDS011;12423;48.768;8.850;2023-06-26T07:59:47;9.82;;;4.13;;
24305;SDS011;12423;48.768;8.850;2023-06-26T08:01:48;7.03;;;3.85;;
24305;SDS011;12423;48.768;8.850;2023-06-26T08:03:51;7.88;;;3.78;;
24305;SDS011;12423;48.768;8.850;2023-06-26T08:05:52;6.38;;;4.00;;
24305;SDS011;12423;48.768;8.850;2023-06-26T08:07:53;4.70;;;3.70;;
24305;SDS011;12423;48.768;8.850;2023-06-26T08:09:54;8.77;;;4.20;;
24305;SDS011;12423;48.768;8.850;2023-06-26T08:11:55;6.18;;;3.85;;
24305;SDS011;12423;48.768;8.850;2023-06-26T08:13:57;5.93;;;4.15;;
24305;SDS011;12423;48.768;8.850;2023-06-26T08:15:58;4.55;;;3.70;;
24305;SDS011;12423;48.768;8.850;2023-06-26T08:17:59;5.10;;;3.63;;
24305;SDS011;12423;48.768;8.850;2023-06-26T08:20:00;5.85;;;4.22;;
24305;SDS011;12423;48.768;8.850;2023-06-26T08:22:01;8.57;;;4.38;;
24305;SDS011;12423;48.768;8.850;2023-06-26T08:24:02;6.93;;;4.28;;
24305;SDS011;12423;48.768;8.850;2023-06-26T08:26:03;5.55;;;3.90;;
24305;SDS011;12423;48.768;8.850;2023-06-26T08:28:04;7.53;;;4.32;;
24305;SDS011;12423;48.768;8.850;2023-06-26T08:30:05;5.88;;;4.22;;
24305;SDS011;12423;48.768;8.850;2023-06-26T08:32:07;5.57;;;3.85;;
24305;SDS011;12423;48.768;8.850;2023-06-26T08:34:08;4.63;;;3.72;;
24305;SDS011;12423;48.768;8.850;2023-06-26T08:36:09;5.07;;;4.05;;
24305;SDS011;12423;48.768;8.850;2023-06-26T08:38:10;5.50;;;4.10;;
24305;SDS011;12423;48.768;8.850;2023-06-26T08:40:11;5.53;;;3.85;;
24305;SDS011;12423;48.768;8.850;2023-06-26T08:42:13;7.15;;;4.80;;
24305;SDS011;12423;48.768;8.850;2023-06-26T08:44:14;4.78;;;3.83;;
24305;SDS011;12423;48.768;8.850;2023-06-26T08:46:15;6.10;;;4.40;;
24305;SDS011;12423;48.768;8.850;2023-06-26T08:48:16;6.88;;;4.47;;
24305;SDS011;12423;48.768;8.850;2023-06-26T08:50:18;5.57;;;4.53;;
24305;SDS011;12423;48.768;8.850;2023-06-26T08:52:23;5.35;;;4.35;;
24305;SDS011;12423;48.768;8.850;2023-06-26T08:54:31;4.90;;;4.15;;
24305;SDS011;12423;48.768;8.850;2023-06-26T08:56:38;6.18;;;4.75;;
24305;SDS011;12423;48.768;8.850;2023-06-26T08:58:42;5.18;;;4.20;;
24305;SDS011;12423;48.768;8.850;2023-06-26T09:00:44;5.93;;;4.25;;
24305;SDS011;12423;48.768;8.850;2023-06-26T09:02:46;5.68;;;4.18;;
24305;SDS011;12423;48.768;8.850;2023-06-26T09:04:47;5.47;;;4.25;;
24305;SDS011;12423;48.768;8.850;2023-06-26T09:06:51;7.85;;;4.88;;
24305;SDS011;12423;48.768;8.850;2023-06-26T09:08:52;5.45;;;4.43;;
24305;SDS011;12423;48.768;8.850;2023-06-26T09:10:53;6.18;;;4.13;;
24305;SDS011;12423;48.768;8.850;2023-06-26T09:12:55;6.30;;;4.43;;
24305;SDS011;12423;48.768;8.850;2023-06-26T09:14:58;6.43;;;4.35;;
24305;SDS011;12423;48.768;8.850;2023-06-26T09:16:59;9.93;;;4.53;;
24305;SDS011;12423;48.768;8.850;2023-06-26T09:19:00;5.45;;;4.45;;
24305;SDS011;12423;48.768;8.850;2023-06-26T09:21:08;6.40;;;4.40;;
24305;SDS011;12423;48.768;8.850;2023-06-26T09:23:09;8.27;;;4.82;;
24305;SDS011;12423;48.768;8.850;2023-06-26T09:25:10;5.38;;;4.28;;
24305;SDS011;12423;48.768;8.850;2023-06-26T09:27:11;6.72;;;4.57;;
24305;SDS011;12423;48.768;8.850;2023-06-26T09:29:13;5.78;;;4.63;;
24305;SDS011;12423;48.768;8.850;2023-06-26T09:31:14;15.43;;;5.50;;
24305;SDS011;12423;48.768;8.850;2023-06-26T09:33:17;6.32;;;4.57;;
24305;SDS011;12423;48.768;8.850;2023-06-26T09:35:19;6.43;;;4.65;;
24305;SDS011;12423;48.768;8.850;2023-06-26T09:37:20;6.22;;;4.63;;
24305;SDS011;12423;48.768;8.850;2023-06-26T09:39:22;5.53;;;4.53;;
24305;SDS011;12423;48.768;8.850;2023-06-26T09:41:23;5.47;;;4.43;;
24305;SDS011;12423;48.768;8.850;2023-06-26T09:43:24;8.02;;;4.63;;
24305;SDS011;12423;48.768;8.850;2023-06-26T09:45:26;6.88;;;4.75;;
24305;SDS011;12423;48.768;8.850;2023-06-26T09:47:29;6.45;;;4.82;;
24305;SDS011;12423;48.768;8.850;2023-06-26T09:49:31;8.07;;;4.88;;
24305;SDS011;12423;48.768;8.850;2023-06-26T09:51:33;5.50;;;4.45;;
24305;SDS011;12423;48.768;8.850;2023-06-26T09:53:35;6.55;;;4.63;;
24305;SDS011;12423;48.768;8.850;2023-06-26T09:55:37;8.30;;;4.75;;
24305;SDS011;12423;48.768;8.850;2023-06-26T09:57:38;5.97;;;4.78;;
24305;SDS011;12423;48.768;8.850;2023-06-26T09:59:41;7.32;;;5.43;;
24305;SDS011;12423;48.768;8.850;2023-06-26T10:01:45;8.38;;;5.30;;
24305;SDS011;12423;48.768;8.850;2023-06-26T10:03:47;6.25;;;5.35;;
24305;SDS011;12423;48.768;8.850;2023-06-26T10:05:48;6.30;;;5.55;;
24305;SDS011;12423;48.768;8.850;2023-06-26T10:07:49;9.60;;;5.57;;
24305;SDS011;12423;48.768;8.850;2023-06-26T10:09:51;7.93;;;4.93;;
24305;SDS011;12423;48.768;8.850;2023-06-26T10:11:56;9.35;;;5.35;;
24305;SDS011;12423;48.768;8.850;2023-06-26T10:14:08;6.90;;;5.50;;
24305;SDS011;12423;48.768;8.850;2023-06-26T10:16:12;10.50;;;5.50;;
24305;SDS011;12423;48.768;8.850;2023-06-26T10:18:15;6.53;;;5.18;;
24305;SDS011;12423;48.768;8.850;2023-06-26T10:20:18;8.82;;;5.43;;
24305;SDS011;12423;48.768;8.850;2023-06-26T10:22:20;8.10;;;5.63;;
24305;SDS011;12423;48.768;8.850;2023-06-26T10:24:26;8.88;;;5.43;;
24305;SDS011;12423;48.768;8.850;2023-06-26T10:26:29;9.98;;;5.50;;
24305;SDS011;12423;48.768;8.850;2023-06-26T10:28:32;6.60;;;5.43;;
24305;SDS011;12423;48.768;8.850;2023-06-26T10:30:35;8.63;;;5.88;;
24305;SDS011;12423;48.768;8.850;2023-06-26T10:32:39;8.55;;;5.70;;
24305;SDS011;12423;48.768;8.850;2023-06-26T10:34:41;7.57;;;5.40;;
24305;SDS011;12423;48.768;8.850;2023-06-26T10:36:43;9.25;;;5.45;;
24305;SDS011;12423;48.768;8.850;2023-06-26T10:38:50;7.85;;;5.25;;
24305;SDS011;12423;48.768;8.850;2023-06-26T10:41:12;6.40;;;5.43;;
24305;SDS011;12423;48.768;8.850;2023-06-26T10:43:15;12.52;;;5.78;;
24305;SDS011;12423;48.768;8.850;2023-06-26T10:45:18;10.00;;;5.63;;
24305;SDS011;12423;48.768;8.850;2023-06-26T10:47:30;6.97;;;5.95;;
24305;SDS011;12423;48.768;8.850;2023-06-26T10:49:32;10.40;;;5.65;;
24305;SDS011;12423;48.768;8.850;2023-06-26T10:51:36;8.15;;;5.72;;
24305;SDS011;12423;48.768;8.850;2023-06-26T10:53:37;7.32;;;5.60;;
24305;SDS011;12423;48.768;8.850;2023-06-26T10:55:43;9.82;;;5.90;;
24305;SDS011;12423;48.768;8.850;2023-06-26T10:59:49;5.93;;;4.85;;
24305;SDS011;12423;48.768;8.850;2023-06-26T11:02:10;7.05;;;5.50;;
24305;SDS011;12423;48.768;8.850;2023-06-26T11:04:11;8.20;;;6.30;;
24305;SDS011;12423;48.768;8.850;2023-06-26T11:06:16;8.02;;;5.47;;
24305;SDS011;12423;48.768;8.850;2023-06-26T11:08:19;6.70;;;5.63;;
24305;SDS011;12423;48.768;8.850;2023-06-26T11:10:20;8.57;;;7.60;;
24305;SDS011;12423;48.768;8.850;2023-06-26T11:12:34;13.02;;;6.10;;
24305;SDS011;12423;48.768;8.850;2023-06-26T11:14:37;7.28;;;5.20;;
24305;SDS011;12423;48.768;8.850;2023-06-26T11:16:39;9.82;;;5.45;;
24305;SDS011;12423;48.768;8.850;2023-06-26T11:18:44;8.68;;;5.38;;
24305;SDS011;12423;48.768;8.850;2023-06-26T11:20:45;5.80;;;4.85;;
24305;SDS011;12423;48.768;8.850;2023-06-26T11:22:46;7.45;;;5.78;;
24305;SDS011;12423;48.768;8.850;2023-06-26T11:24:53;7.03;;;5.43;;
24305;SDS011;12423;48.768;8.850;2023-06-26T11:26:54;8.20;;;5.40;;
24305;SDS011;12423;48.768;8.850;2023-06-26T11:29:00;11.35;;;5.22;;
24305;SDS011;12423;48.768;8.850;2023-06-26T11:31:01;10.10;;;5.47;;
24305;SDS011;12423;48.768;8.850;2023-06-26T11:33:06;7.72;;;5.20;;
24305;SDS011;12423;48.768;8.850;2023-06-26T11:35:08;8.13;;;4.85;;
24305;SDS011;12423;48.768;8.850;2023-06-26T11:37:10;7.00;;;5.22;;
24305;SDS011;12423;48.768;8.850;2023-06-26T11:39:12;6.07;;;4.93;;
24305;SDS011;12423;48.768;8.850;2023-06-26T11:41:16;21.05;;;6.60;;
24305;SDS011;12423;48.768;8.850;2023-06-26T11:43:18;11.60;;;5.30;;
24305;SDS011;12423;48.768;8.850;2023-06-26T11:45:20;8.65;;;5.50;;
24305;SDS011;12423;48.768;8.850;2023-06-26T11:47:21;8.55;;;5.25;;
24305;SDS011;12423;48.768;8.850;2023-06-26T11:49:23;7.03;;;4.95;;
24305;SDS011;12423;48.768;8.850;2023-06-26T11:51:28;8.00;;;4.80;;
24305;SDS011;12423;48.768;8.850;2023-06-26T11:53:30;6.70;;;4.75;;
24305;SDS011;12423;48.768;8.850;2023-06-26T11:55:39;7.72;;;5.03;;
24305;SDS011;12423;48.768;8.850;2023-06-26T11:57:41;5.65;;;4.72;;
24305;SDS011;12423;48.768;8.850;2023-06-26T11:59:42;7.65;;;4.60;;
24305;SDS011;12423;48.768;8.850;2023-06-26T12:01:44;10.98;;;5.20;;
24305;SDS011;12423;48.768;8.850;2023-06-26T12:03:45;6.45;;;4.80;;
24305;SDS011;12423;48.768;8.850;2023-06-26T12:05:46;9.32;;;5.03;;
24305;SDS011;12423;48.768;8.850;2023-06-26T12:07:47;6.75;;;4.38;;
24305;SDS011;12423;48.768;8.850;2023-06-26T12:09:50;8.07;;;4.47;;
24305;SDS011;12423;48.768;8.850;2023-06-26T12:11:52;6.00;;;4.65;;
24305;SDS011;12423;48.768;8.850;2023-06-26T12:13:54;5.38;;;4.63;;
24305;SDS011;12423;48.768;8.850;2023-06-26T12:15:55;8.48;;;4.75;;
24305;SDS011;12423;48.768;8.850;2023-06-26T12:17:58;7.22;;;5.07;;
24305;SDS011;12423;48.768;8.850;2023-06-26T12:19:59;7.80;;;5.03;;
24305;SDS011;12423;48.768;8.850;2023-06-26T12:22:05;5.60;;;4.63;;